createdAt,value
2018-01-30T00:01:22.508Z,4.37
2018-01-30T00:04:06.028Z,4.27
2018-01-30T00:06:43.396Z,4.90
2018-01-30T00:09:12.948Z,4.27
2018-01-30T00:11:42.750Z,4.03
2018-01-30T00:14:13.760Z,4.40
2018-01-30T00:16:44.455Z,3.73
2018-01-30T00:19:14.048Z,4.30
2018-01-30T00:21:43.703Z,3.43
2018-01-30T00:24:13.261Z,3.67
2018-01-30T00:26:42.798Z,4.07
2018-01-30T00:29:12.384Z,4.10
2018-01-30T00:31:41.991Z,3.90
2018-01-30T00:34:11.668Z,4.23
2018-01-30T00:36:41.799Z,4.10
2018-01-30T00:39:11.376Z,3.57
2018-01-30T00:41:54.781Z,4.00
2018-01-30T00:44:24.373Z,3.60
2018-01-30T00:46:59.189Z,3.97
2018-01-30T00:49:28.803Z,3.80
2018-01-30T00:52:01.489Z,3.40
2018-01-30T00:54:31.032Z,3.67
2018-01-30T00:57:00.549Z,4.33
2018-01-30T00:59:30.077Z,4.20
2018-01-30T01:02:04.967Z,4.10
2018-01-30T01:04:34.544Z,3.60
2018-01-30T01:07:04.160Z,4.30
2018-01-30T01:09:34.981Z,4.37
2018-01-30T01:12:14.770Z,5.17
2018-01-30T01:14:44.379Z,5.90
2018-01-30T01:17:13.962Z,4.67
2018-01-30T01:19:43.633Z,5.57
2018-01-30T01:22:13.231Z,4.40
2018-01-30T01:24:50.396Z,4.87
2018-01-30T01:27:19.992Z,4.00
2018-01-30T01:29:49.617Z,5.10
2018-01-30T01:32:19.209Z,4.50
2018-01-30T01:34:48.812Z,4.40
2018-01-30T01:37:18.421Z,5.17
2018-01-30T01:39:49.036Z,4.70
2018-01-30T01:42:18.919Z,5.73
2018-01-30T01:44:48.720Z,5.90
2018-01-30T01:47:18.457Z,5.40
2018-01-30T01:49:48.248Z,5.50
2018-01-30T01:52:25.373Z,5.03
2018-01-30T01:54:55.174Z,4.50
2018-01-30T01:57:24.666Z,5.60
2018-01-30T01:59:54.262Z,5.67
2018-01-30T02:02:24.273Z,6.53
2018-01-30T02:04:53.887Z,5.70
2018-01-30T02:07:24.159Z,5.50
2018-01-30T02:09:53.710Z,5.00
2018-01-30T02:12:24.698Z,5.47
2018-01-30T02:14:54.464Z,6.47
2018-01-30T02:17:24.661Z,5.20
2018-01-30T02:19:54.248Z,5.80
2018-01-30T02:22:24.270Z,5.57
2018-01-30T02:24:54.036Z,6.50
2018-01-30T02:27:23.655Z,5.60
2018-01-30T02:29:53.243Z,5.40
2018-01-30T02:32:22.866Z,5.10
2018-01-30T02:34:52.470Z,6.60
2018-01-30T02:37:22.105Z,6.60
2018-01-30T02:39:51.692Z,5.93
2018-01-30T02:42:21.363Z,5.23
2018-01-30T02:44:51.206Z,5.30
2018-01-30T02:47:20.849Z,5.60
2018-01-30T02:49:57.743Z,6.60
2018-01-30T02:52:27.425Z,5.87
2018-01-30T02:54:57.013Z,5.93
2018-01-30T02:57:26.660Z,5.93
2018-01-30T02:59:56.227Z,6.73
2018-01-30T03:02:33.813Z,6.03
2018-01-30T03:05:03.678Z,5.83
2018-01-30T03:07:33.358Z,5.60
2018-01-30T03:10:02.941Z,5.57
2018-01-30T03:12:33.228Z,6.00
2018-01-30T03:15:02.847Z,6.77
2018-01-30T03:17:32.436Z,6.63
2018-01-30T03:20:02.317Z,5.50
2018-01-30T03:22:41.950Z,6.40
2018-01-30T03:25:12.910Z,6.23
2018-01-30T03:27:49.029Z,6.20
2018-01-30T03:30:19.791Z,5.30
2018-01-30T03:32:49.955Z,5.30
2018-01-30T03:35:19.952Z,5.17
2018-01-30T03:37:50.070Z,5.13
2018-01-30T03:40:19.620Z,5.17
2018-01-30T03:42:52.112Z,5.63
2018-01-30T03:45:29.266Z,4.90
2018-01-30T03:47:58.860Z,4.23
2018-01-30T03:50:28.406Z,5.40
2018-01-30T03:52:57.973Z,4.80
2018-01-30T03:55:27.497Z,4.93
2018-01-30T03:57:57.036Z,4.70
2018-01-30T04:00:27.013Z,5.20
2018-01-30T04:02:57.115Z,6.13
2018-01-30T04:05:26.648Z,5.70
2018-01-30T04:07:59.564Z,5.87
2018-01-30T04:10:29.175Z,6.13
2018-01-30T04:12:58.741Z,5.97
2018-01-30T04:15:28.356Z,4.97
2018-01-30T04:17:58.010Z,5.63
2018-01-30T04:20:27.799Z,6.33
2018-01-30T04:23:03.672Z,5.47
2018-01-30T04:25:33.473Z,6.17
2018-01-30T04:28:08.672Z,5.93
2018-01-30T04:30:51.858Z,6.53
2018-01-30T04:33:25.249Z,6.33
2018-01-30T04:35:55.697Z,5.80
2018-01-30T04:38:25.303Z,6.43
2018-01-30T04:40:54.843Z,6.40
2018-01-30T04:43:25.974Z,6.50
2018-01-30T04:45:55.604Z,8.20
2018-01-30T04:48:25.492Z,9.50
2018-01-30T04:50:55.028Z,9.27
2018-01-30T04:53:24.620Z,7.47
2018-01-30T04:55:56.020Z,7.53
2018-01-30T04:58:32.820Z,7.80
2018-01-30T05:01:02.387Z,8.40
2018-01-30T05:03:32.014Z,7.50
2018-01-30T05:06:09.457Z,7.70
2018-01-30T05:08:39.062Z,6.90
2018-01-30T05:11:08.649Z,8.03
2018-01-30T05:13:38.175Z,8.03
2018-01-30T05:16:07.819Z,8.47
2018-01-30T05:18:37.443Z,7.83
2018-01-30T05:21:09.415Z,8.47
2018-01-30T05:23:38.996Z,8.03
2018-01-30T05:26:08.808Z,7.50
2018-01-30T05:28:38.750Z,9.83
2018-01-30T05:31:08.595Z,9.53
2018-01-30T05:33:38.138Z,9.47
2018-01-30T05:36:07.732Z,8.50
2018-01-30T05:38:37.235Z,9.10
2018-01-30T05:41:06.772Z,9.87
2018-01-30T05:43:36.311Z,10.10
2018-01-30T05:46:05.784Z,8.50
2018-01-30T05:48:35.379Z,8.83
2018-01-30T05:51:04.935Z,8.50
2018-01-30T05:53:34.449Z,8.03
2018-01-30T05:56:16.502Z,8.33
2018-01-30T05:58:47.295Z,6.80
2018-01-30T06:01:16.861Z,7.57
2018-01-30T06:03:46.445Z,7.43
2018-01-30T06:06:20.490Z,8.33
2018-01-30T06:08:50.154Z,9.57
2018-01-30T06:11:19.981Z,10.10
2018-01-30T06:13:49.511Z,10.20
2018-01-30T06:16:19.115Z,9.57
2018-01-30T06:18:50.210Z,9.73
2018-01-30T06:21:19.755Z,8.23
2018-01-30T06:23:50.289Z,9.60
2018-01-30T06:26:19.833Z,10.27
2018-01-30T06:28:49.366Z,9.97
2018-01-30T06:31:19.039Z,9.47
2018-01-30T06:33:49.982Z,9.30
2018-01-30T06:36:19.652Z,8.20
2018-01-30T06:38:49.187Z,8.63
2018-01-30T06:41:18.722Z,8.40
2018-01-30T06:44:01.114Z,8.50
2018-01-30T06:46:30.682Z,8.50
2018-01-30T06:49:00.503Z,8.97
2018-01-30T06:51:30.552Z,9.10
2018-01-30T06:54:00.834Z,8.80
2018-01-30T06:56:30.379Z,9.70
2018-01-30T06:59:01.269Z,7.97
2018-01-30T07:01:34.588Z,7.60
2018-01-30T07:04:04.437Z,6.53
2018-01-30T07:06:34.106Z,7.53
2018-01-30T07:09:22.670Z,7.07
2018-01-30T07:11:59.068Z,7.47
2018-01-30T07:14:28.610Z,7.57
2018-01-30T07:16:58.459Z,7.87
2018-01-30T07:21:53.546Z,7.67
2018-01-30T07:24:23.085Z,9.10
2018-01-30T07:26:52.624Z,8.17
2018-01-30T07:29:23.001Z,7.43
2018-01-30T07:31:52.503Z,7.13
2018-01-30T07:34:22.688Z,7.47
2018-01-30T07:36:52.971Z,7.97
2018-01-30T07:39:23.890Z,9.20
2018-01-30T07:42:04.016Z,7.60
2018-01-30T07:44:33.990Z,6.30
2018-01-30T07:47:03.811Z,6.20
2018-01-30T07:49:34.158Z,6.60
2018-01-30T07:52:18.245Z,8.07
2018-01-30T07:54:48.447Z,6.53
2018-01-30T07:57:18.251Z,7.57
2018-01-30T07:59:55.562Z,6.90
2018-01-30T08:02:25.155Z,7.70
2018-01-30T08:04:54.698Z,6.90
2018-01-30T08:07:24.239Z,8.20
2018-01-30T08:09:54.186Z,6.70
2018-01-30T08:12:23.761Z,7.30
2018-01-30T08:14:53.754Z,7.03
2018-01-30T08:17:23.746Z,5.37
2018-01-30T08:19:53.311Z,5.20
2018-01-30T08:22:22.858Z,6.80
2018-01-30T08:24:52.395Z,5.90
2018-01-30T08:27:21.898Z,5.10
2018-01-30T08:29:57.969Z,4.30
2018-01-30T08:32:27.870Z,4.53
2018-01-30T08:34:57.445Z,4.20
2018-01-30T08:37:26.998Z,4.10
2018-01-30T08:39:56.563Z,4.00
2018-01-30T08:42:26.369Z,4.23
2018-01-30T08:44:55.950Z,6.60
2018-01-30T08:47:25.467Z,6.77
2018-01-30T08:49:55.015Z,7.70
2018-01-30T08:52:24.650Z,6.60
2018-01-30T08:54:54.213Z,7.57
2018-01-30T08:57:23.719Z,9.90
2018-01-30T08:59:53.276Z,11.40
2018-01-30T09:02:23.421Z,9.50
2018-01-30T09:04:53.813Z,12.13
2018-01-30T09:07:23.384Z,12.57
2018-01-30T09:09:53.463Z,13.40
2018-01-30T09:12:23.735Z,10.40
2018-01-30T09:14:53.375Z,12.33
2018-01-30T09:17:30.191Z,11.27
2018-01-30T09:20:05.741Z,14.70
2018-01-30T09:22:41.294Z,14.30
2018-01-30T09:25:11.083Z,13.40
2018-01-30T09:27:40.714Z,12.03
2018-01-30T09:30:10.307Z,14.80
2018-01-30T09:32:39.870Z,14.63
2018-01-30T09:35:09.395Z,14.10
2018-01-30T09:37:44.969Z,12.70
2018-01-30T09:40:14.535Z,15.70
2018-01-30T09:42:44.152Z,13.20
2018-01-30T09:45:13.664Z,13.10
2018-01-30T09:47:43.217Z,13.10
2018-01-30T09:50:12.778Z,12.83
2018-01-30T09:52:43.170Z,13.87
2018-01-30T09:55:12.696Z,16.90
2018-01-30T09:57:42.203Z,16.53
2018-01-30T10:00:11.732Z,15.40
2018-01-30T10:02:42.018Z,16.17
2018-01-30T10:05:11.766Z,17.10
2018-01-30T10:07:41.303Z,16.53
2018-01-30T10:10:10.806Z,16.70
2018-01-30T10:12:40.451Z,16.70
2018-01-30T10:15:10.001Z,14.70
2018-01-30T10:17:39.526Z,16.97
2018-01-30T10:20:09.147Z,16.17
2018-01-30T10:22:38.717Z,13.20
2018-01-30T10:25:08.718Z,14.93
2018-01-30T10:27:38.247Z,13.67
2018-01-30T10:30:07.805Z,16.23
2018-01-30T10:32:37.323Z,15.40
2018-01-30T10:35:06.917Z,14.30
2018-01-30T10:37:36.493Z,15.30
2018-01-30T10:40:06.090Z,14.80
2018-01-30T10:42:35.665Z,14.07
2018-01-30T10:45:05.958Z,13.77
2018-01-30T10:47:35.509Z,17.50
2018-01-30T10:50:06.772Z,15.70
2018-01-30T10:52:36.326Z,18.30
2018-01-30T10:55:06.254Z,15.17
2018-01-30T10:57:35.808Z,15.00
2018-01-30T11:00:13.920Z,12.50
2018-01-30T11:02:43.520Z,13.60
2018-01-30T11:05:17.902Z,13.90
2018-01-30T11:07:47.504Z,14.33
2018-01-30T11:10:17.042Z,12.93
2018-01-30T11:12:52.863Z,12.73
2018-01-30T11:15:22.423Z,13.40
2018-01-30T11:17:52.907Z,13.17
2018-01-30T11:20:22.438Z,14.70
2018-01-30T11:22:51.935Z,12.90
2018-01-30T11:25:33.614Z,13.97
2018-01-30T11:28:03.200Z,17.40
2018-01-30T11:30:33.154Z,15.13
2018-01-30T11:33:04.295Z,14.90
2018-01-30T11:35:33.858Z,13.47
2018-01-30T11:38:03.381Z,14.17
2018-01-30T11:40:32.951Z,15.23
2018-01-30T11:43:02.518Z,14.10
2018-01-30T11:45:32.059Z,14.97
2018-01-30T11:48:01.616Z,16.20
2018-01-30T11:50:31.663Z,13.57
2018-01-30T11:53:01.166Z,14.37
2018-01-30T11:55:30.735Z,17.20
2018-01-30T11:58:00.288Z,15.20
2018-01-30T12:00:29.943Z,13.93
2018-01-30T12:03:02.274Z,15.50
2018-01-30T12:05:31.848Z,16.37
2018-01-30T12:08:01.402Z,14.40
2018-01-30T12:10:36.939Z,14.13
2018-01-30T12:13:07.080Z,15.60
2018-01-30T12:15:36.634Z,14.93
2018-01-30T12:18:06.205Z,13.50
2018-01-30T12:20:35.738Z,11.90
2018-01-30T12:23:05.278Z,10.53
2018-01-30T12:25:35.054Z,9.93
2018-01-30T12:28:04.609Z,11.87
2018-01-30T12:30:34.260Z,12.97
2018-01-30T12:33:03.878Z,12.30
2018-01-30T12:35:33.466Z,12.80
2018-01-30T12:38:03.032Z,15.10
2018-01-30T12:57:47.672Z,13.00
2018-01-30T13:00:17.228Z,10.10
2018-01-30T13:14:14.052Z,9.27
2018-01-30T13:16:55.828Z,8.90
2018-01-30T13:19:25.367Z,8.47
2018-01-30T13:21:54.953Z,8.80
2018-01-30T13:24:24.528Z,6.73
2018-01-30T13:26:54.047Z,8.43
2018-01-30T13:29:24.235Z,8.03
2018-01-30T13:31:54.216Z,9.33
2018-01-30T13:36:59.139Z,7.83
2018-01-30T13:39:28.637Z,9.80
2018-01-30T13:41:58.182Z,9.10
2018-01-30T13:44:28.524Z,8.40
2018-01-30T13:46:59.776Z,9.90
2018-01-30T13:49:30.363Z,10.70
2018-01-30T13:52:00.654Z,10.23
2018-01-30T13:54:30.640Z,12.63
2018-01-30T13:57:02.972Z,10.30
2018-01-30T13:59:43.743Z,11.60
2018-01-30T14:02:14.651Z,11.90
2018-01-30T14:04:51.599Z,14.30
2018-01-30T14:10:14.322Z,13.30
2018-01-30T14:12:46.061Z,12.00
2018-01-30T14:18:01.899Z,10.40
2018-01-30T14:20:32.467Z,11.13
2018-01-30T14:23:15.846Z,9.53
2018-01-30T14:25:46.672Z,10.40
2018-01-30T14:28:18.302Z,10.70
2018-01-30T14:30:49.732Z,11.00
2018-01-30T14:33:21.115Z,12.67
2018-01-30T14:35:52.687Z,12.33
2018-01-30T14:38:22.723Z,13.47
2018-01-30T14:43:26.301Z,13.10
2018-01-30T14:48:38.312Z,12.37
2018-01-30T14:51:07.931Z,11.97
2018-01-30T14:56:11.434Z,12.53
2018-01-30T14:58:40.955Z,11.90
2018-01-30T15:01:10.446Z,12.63
2018-01-30T15:03:40.889Z,13.70
2018-01-30T15:06:33.201Z,12.37
2018-01-30T15:09:05.127Z,15.20
2018-01-30T15:11:34.614Z,14.90
2018-01-30T15:14:04.307Z,13.17
2018-01-30T15:16:35.145Z,16.10
2018-01-30T15:19:06.576Z,15.23
2018-01-30T15:21:55.096Z,14.07
2018-01-30T15:24:24.815Z,13.20
2018-01-30T15:26:54.407Z,12.73
2018-01-30T15:29:24.924Z,12.07
2018-01-30T15:31:54.475Z,10.40
2018-01-30T15:34:24.051Z,10.17
2018-01-30T15:36:53.795Z,9.70
2018-01-30T15:39:25.348Z,9.17
2018-01-30T15:41:55.820Z,8.00
2018-01-30T15:44:46.496Z,8.30
2018-01-30T15:47:16.023Z,7.90
2018-01-30T15:49:46.357Z,7.57
2018-01-30T15:52:16.161Z,7.90
2018-01-30T15:57:26.313Z,8.50
2018-01-30T15:59:55.782Z,6.80
2018-01-30T16:02:40.114Z,7.60
2018-01-30T16:05:11.806Z,7.20
2018-01-30T16:10:30.468Z,5.90
2018-01-30T16:13:08.323Z,6.33
2018-01-30T16:15:37.866Z,8.17
2018-01-30T16:18:07.653Z,6.70
2018-01-30T16:20:42.572Z,7.90
2018-01-30T16:23:13.052Z,5.90
2018-01-30T16:25:43.536Z,6.70
2018-01-30T16:28:13.711Z,6.00
2018-01-30T16:30:43.357Z,6.47
2018-01-30T16:33:14.684Z,7.13
2018-01-30T16:35:45.595Z,7.77
2018-01-30T16:38:16.070Z,7.10
2018-01-30T16:40:46.730Z,7.97
2018-01-30T16:43:23.467Z,6.60
2018-01-30T16:45:53.706Z,6.17
2018-01-30T16:48:29.223Z,6.80
2018-01-30T16:50:58.714Z,6.57
2018-01-30T16:53:34.211Z,5.30
2018-01-30T16:56:03.685Z,6.30
2018-01-30T16:58:33.162Z,5.60
2018-01-30T17:01:02.687Z,5.30
2018-01-30T17:03:32.570Z,5.40
2018-01-30T17:06:02.064Z,6.57
2018-01-30T17:08:31.571Z,6.97
2018-01-30T17:11:06.945Z,5.77
2018-01-30T17:13:36.517Z,6.63
2018-01-30T17:16:06.112Z,6.07
2018-01-30T17:18:35.680Z,7.20
2018-01-30T17:21:05.350Z,6.20
2018-01-30T17:23:34.889Z,5.70
2018-01-30T17:26:04.416Z,6.03
2018-01-30T17:28:33.936Z,5.70
2018-01-30T17:31:03.441Z,6.70
2018-01-30T17:33:32.994Z,6.40
2018-01-30T17:36:02.556Z,6.73
2018-01-30T17:38:32.049Z,6.80
2018-01-30T17:41:02.077Z,6.70
2018-01-30T17:43:31.596Z,6.37
2018-01-30T17:46:01.092Z,7.30
2018-01-30T17:48:30.881Z,6.73
2018-01-30T17:51:00.444Z,7.40
2018-01-30T17:53:38.316Z,7.00
2018-01-30T17:56:07.919Z,8.00
2018-01-30T17:58:37.779Z,6.73
2018-01-30T18:01:07.247Z,8.70
2018-01-30T18:03:37.262Z,7.87
2018-01-30T18:06:12.788Z,7.77
2018-01-30T18:08:42.353Z,8.10
2018-01-30T18:11:11.852Z,9.10
2018-01-30T18:13:42.198Z,8.47
2018-01-30T18:16:11.802Z,8.80
2018-01-30T18:18:54.691Z,8.80
2018-01-30T18:21:24.217Z,8.03
2018-01-30T18:23:53.793Z,8.80
2018-01-30T18:26:23.910Z,9.57
2018-01-30T18:28:53.446Z,9.03
2018-01-30T18:31:35.443Z,8.33
2018-01-30T18:34:04.974Z,8.10
2018-01-30T18:36:34.475Z,8.03
2018-01-30T18:39:04.022Z,9.40
2018-01-30T18:41:34.339Z,8.37
2018-01-30T18:44:04.321Z,7.60
2018-01-30T18:46:33.933Z,9.60
2018-01-30T18:49:03.509Z,9.37
2018-01-30T18:51:33.069Z,9.87
2018-01-30T18:54:03.083Z,9.70
2018-01-30T18:56:32.616Z,10.27
2018-01-30T18:59:02.172Z,9.40
2018-01-30T19:01:31.684Z,9.93
2018-01-30T19:04:01.402Z,9.60
2018-01-30T19:06:32.158Z,11.20
2018-01-30T19:09:01.718Z,10.37
2018-01-30T19:11:31.260Z,10.20
2018-01-30T19:14:00.831Z,10.40
2018-01-30T19:16:30.748Z,10.67
2018-01-30T19:19:00.445Z,10.97
2018-01-30T19:21:30.124Z,12.43
2018-01-30T19:23:59.701Z,11.03
2018-01-30T19:26:29.217Z,10.40
2018-01-30T19:28:58.858Z,10.60
2018-01-30T19:31:28.543Z,11.43
2018-01-30T19:33:58.125Z,10.30
2018-01-30T19:36:27.707Z,10.67
2018-01-30T19:38:57.242Z,10.13
2018-01-30T19:41:26.807Z,11.00
2018-01-30T19:43:56.358Z,11.63
2018-01-30T19:46:25.886Z,9.00
2018-01-30T19:49:03.287Z,10.57
2018-01-30T19:51:32.875Z,11.00
2018-01-30T19:54:02.490Z,10.40
2018-01-30T19:56:32.036Z,10.20
2018-01-30T19:59:01.587Z,11.33
2018-01-30T20:01:31.188Z,12.40
2018-01-30T20:04:00.696Z,10.23
2018-01-30T20:06:41.786Z,10.00
2018-01-30T20:09:11.377Z,10.03
2018-01-30T20:11:40.926Z,9.87
2018-01-30T20:14:10.463Z,10.27
2018-01-30T20:16:40.023Z,10.00
2018-01-30T20:19:09.562Z,14.87
2018-01-30T20:21:39.165Z,12.60
2018-01-30T20:24:08.723Z,10.83
2018-01-30T20:26:45.251Z,8.57
2018-01-30T20:29:15.214Z,9.20
2018-01-30T20:31:45.723Z,8.83
2018-01-30T20:34:15.397Z,7.83
2018-01-30T20:36:45.046Z,8.40
2018-01-30T20:39:14.587Z,7.30
2018-01-30T20:41:45.512Z,7.50
2018-01-30T20:44:16.008Z,7.13
2018-01-30T20:46:51.636Z,6.37
2018-01-30T20:49:21.169Z,6.70
2018-01-30T20:51:56.795Z,6.07
2018-01-30T20:54:26.416Z,6.60
2018-01-30T20:56:56.131Z,6.80
2018-01-30T20:59:25.730Z,7.60
2018-01-30T21:01:56.048Z,7.37
2018-01-30T21:04:26.411Z,6.10
2018-01-30T21:07:00.529Z,7.00
2018-01-30T21:09:30.938Z,6.37
2018-01-30T21:12:00.650Z,6.93
2018-01-30T21:14:30.424Z,5.50
2018-01-30T21:17:00.000Z,6.23
2018-01-30T21:19:29.673Z,6.20
2018-01-30T21:21:59.263Z,6.20
2018-01-30T21:24:28.878Z,6.20
2018-01-30T21:26:58.462Z,6.00
2018-01-30T21:29:28.495Z,7.07
2018-01-30T21:31:59.215Z,6.13
2018-01-30T21:34:28.913Z,6.37
2018-01-30T21:36:59.383Z,7.10
2018-01-30T21:39:28.983Z,7.27
2018-01-30T21:41:58.549Z,7.40
2018-01-30T21:44:28.120Z,8.90
2018-01-30T21:46:58.004Z,8.60
2018-01-30T21:49:42.719Z,8.40
2018-01-30T21:52:18.329Z,7.30
2018-01-30T21:54:49.942Z,8.20
2018-01-30T21:57:19.522Z,8.00
2018-01-30T21:59:56.224Z,7.37
2018-01-30T22:02:26.840Z,6.83
2018-01-30T22:04:57.470Z,7.10
2018-01-30T22:10:02.647Z,6.60
2018-01-30T22:12:32.234Z,7.43
2018-01-30T22:15:07.841Z,7.00
2018-01-30T22:17:38.113Z,7.07
2018-01-30T22:20:07.699Z,6.20
2018-01-30T22:22:37.233Z,6.30
2018-01-30T22:25:08.684Z,5.90
2018-01-30T22:27:38.410Z,5.50
2018-01-30T22:30:21.842Z,5.60
2018-01-30T22:32:51.433Z,5.83
2018-01-30T22:35:21.396Z,5.80
2018-01-30T22:37:50.948Z,5.10
2018-01-30T22:40:23.554Z,5.07
2018-01-30T22:42:53.141Z,5.50
2018-01-30T22:45:22.735Z,5.60
